sensor_id;sensor_type;location;lat;lon;timestamp;P1;durP1;ratioP1;P2;durP2;ratioP2
39442;SDS011;25147;52.142;9.960;2023-09-08T00:00:57;7.28;;;6.57;;
39442;SDS011;25147;52.142;9.960;2023-09-08T00:03:24;8.10;;;7.13;;
39442;SDS011;25147;52.142;9.960;2023-09-08T00:05:50;8.70;;;6.13;;
39442;SDS011;25147;52.142;9.960;2023-09-08T00:08:17;6.97;;;6.22;;
39442;SDS011;25147;52.142;9.960;2023-09-08T00:10:44;7.60;;;6.13;;
39442;SDS011;25147;52.142;9.960;2023-09-08T00:13:12;7.63;;;6.65;;
39442;SDS011;25147;52.142;9.960;2023-09-08T00:15:39;6.82;;;6.22;;
39442;SDS011;25147;52.142;9.960;2023-09-08T00:18:06;7.55;;;6.38;;
39442;SDS011;25147;52.142;9.960;2023-09-08T00:20:33;6.93;;;6.32;;
39442;SDS011;25147;52.142;9.960;2023-09-08T00:23:00;7.15;;;6.45;;
39442;SDS011;25147;52.142;9.960;2023-09-08T00:25:26;7.13;;;6.43;;
39442;SDS011;25147;52.142;9.960;2023-09-08T00:27:53;8.13;;;6.60;;
39442;SDS011;25147;52.142;9.960;2023-09-08T00:30:21;8.45;;;6.78;;
39442;SDS011;25147;52.142;9.960;2023-09-08T00:32:48;6.95;;;6.25;;
39442;SDS011;25147;52.142;9.960;2023-09-08T00:35:15;6.95;;;6.20;;
39442;SDS011;25147;52.142;9.960;2023-09-08T00:37:42;6.78;;;6.07;;
39442;SDS011;25147;52.142;9.960;2023-09-08T00:40:09;7.05;;;6.35;;
39442;SDS011;25147;52.142;9.960;2023-09-08T00:42:37;6.38;;;5.78;;
39442;SDS011;25147;52.142;9.960;2023-09-08T00:45:04;6.60;;;6.00;;
39442;SDS011;25147;52.142;9.960;2023-09-08T00:47:34;7.63;;;6.85;;
39442;SDS011;25147;52.142;9.960;2023-09-08T00:50:01;7.50;;;6.90;;
39442;SDS011;25147;52.142;9.960;2023-09-08T00:52:29;7.63;;;6.82;;
39442;SDS011;25147;52.142;9.960;2023-09-08T00:54:57;7.38;;;6.80;;
39442;SDS011;25147;52.142;9.960;2023-09-08T00:57:25;6.78;;;6.18;;
39442;SDS011;25147;52.142;9.960;2023-09-08T00:59:52;6.80;;;6.20;;
39442;SDS011;25147;52.142;9.960;2023-09-08T01:02:20;7.45;;;6.55;;
39442;SDS011;25147;52.142;9.960;2023-09-08T01:04:48;6.78;;;6.13;;
39442;SDS011;25147;52.142;9.960;2023-09-08T01:07:16;7.03;;;6.35;;
39442;SDS011;25147;52.142;9.960;2023-09-08T01:09:47;7.70;;;6.13;;
39442;SDS011;25147;52.142;9.960;2023-09-08T01:12:34;8.75;;;6.55;;
39442;SDS011;25147;52.142;9.960;2023-09-08T01:15:02;6.82;;;6.18;;
39442;SDS011;25147;52.142;9.960;2023-09-08T01:17:30;7.15;;;6.47;;
39442;SDS011;25147;52.142;9.960;2023-09-08T01:20:04;7.40;;;6.70;;
39442;SDS011;25147;52.142;9.960;2023-09-08T01:22:45;7.35;;;6.60;;
39442;SDS011;25147;52.142;9.960;2023-09-08T01:25:24;7.25;;;6.55;;
39442;SDS011;25147;52.142;9.960;2023-09-08T01:27:52;9.90;;;7.00;;
39442;SDS011;25147;52.142;9.960;2023-09-08T01:30:20;7.72;;;6.88;;
39442;SDS011;25147;52.142;9.960;2023-09-08T01:32:48;7.45;;;6.80;;
39442;SDS011;25147;52.142;9.960;2023-09-08T01:35:15;8.48;;;6.70;;
39442;SDS011;25147;52.142;9.960;2023-09-08T01:37:44;8.68;;;6.18;;
39442;SDS011;25147;52.142;9.960;2023-09-08T01:40:12;8.32;;;6.72;;
39442;SDS011;25147;52.142;9.960;2023-09-08T01:42:40;7.45;;;6.70;;
39442;SDS011;25147;52.142;9.960;2023-09-08T01:45:08;7.80;;;7.03;;
39442;SDS011;25147;52.142;9.960;2023-09-08T01:47:36;9.20;;;6.68;;
39442;SDS011;25147;52.142;9.960;2023-09-08T01:50:04;7.63;;;6.88;;
39442;SDS011;25147;52.142;9.960;2023-09-08T01:52:31;8.05;;;6.95;;
39442;SDS011;25147;52.142;9.960;2023-09-08T01:55:00;9.52;;;7.57;;
39442;SDS011;25147;52.142;9.960;2023-09-08T01:57:27;8.18;;;7.40;;
39442;SDS011;25147;52.142;9.960;2023-09-08T01:59:55;8.65;;;7.60;;
39442;SDS011;25147;52.142;9.960;2023-09-08T02:02:22;8.13;;;7.32;;
39442;SDS011;25147;52.142;9.960;2023-09-08T02:04:49;8.02;;;7.22;;
39442;SDS011;25147;52.142;9.960;2023-09-08T02:07:16;8.02;;;7.22;;
39442;SDS011;25147;52.142;9.960;2023-09-08T02:09:43;7.57;;;6.95;;
39442;SDS011;25147;52.142;9.960;2023-09-08T02:12:10;9.02;;;8.02;;
39442;SDS011;25147;52.142;9.960;2023-09-08T02:14:37;7.28;;;6.63;;
39442;SDS011;25147;52.142;9.960;2023-09-08T02:17:05;10.45;;;7.45;;
39442;SDS011;25147;52.142;9.960;2023-09-08T02:19:33;8.27;;;7.50;;
39442;SDS011;25147;52.142;9.960;2023-09-08T02:22:00;8.32;;;6.88;;
39442;SDS011;25147;52.142;9.960;2023-09-08T02:24:27;8.18;;;7.38;;
39442;SDS011;25147;52.142;9.960;2023-09-08T02:26:54;9.43;;;7.55;;
39442;SDS011;25147;52.142;9.960;2023-09-08T02:29:20;7.78;;;7.07;;
39442;SDS011;25147;52.142;9.960;2023-09-08T02:31:47;7.63;;;6.93;;
39442;SDS011;25147;52.142;9.960;2023-09-08T02:34:16;8.15;;;7.45;;
39442;SDS011;25147;52.142;9.960;2023-09-08T02:36:43;8.88;;;7.93;;
39442;SDS011;25147;52.142;9.960;2023-09-08T02:39:13;8.18;;;7.35;;
39442;SDS011;25147;52.142;9.960;2023-09-08T02:41:40;9.75;;;8.07;;
39442;SDS011;25147;52.142;9.960;2023-09-08T02:44:06;8.75;;;7.60;;
39442;SDS011;25147;52.142;9.960;2023-09-08T02:46:33;8.55;;;7.70;;
39442;SDS011;25147;52.142;9.960;2023-09-08T02:49:00;8.45;;;7.47;;
39442;SDS011;25147;52.142;9.960;2023-09-08T02:51:29;8.65;;;7.80;;
39442;SDS011;25147;52.142;9.960;2023-09-08T02:53:56;8.75;;;7.38;;
39442;SDS011;25147;52.142;9.960;2023-09-08T02:56:23;9.00;;;8.20;;
39442;SDS011;25147;52.142;9.960;2023-09-08T02:58:49;8.38;;;7.60;;
39442;SDS011;25147;52.142;9.960;2023-09-08T03:01:17;9.02;;;8.23;;
39442;SDS011;25147;52.142;9.960;2023-09-08T03:03:46;11.93;;;8.50;;
39442;SDS011;25147;52.142;9.960;2023-09-08T03:06:13;8.48;;;7.65;;
39442;SDS011;25147;52.142;9.960;2023-09-08T03:08:43;8.80;;;8.00;;
39442;SDS011;25147;52.142;9.960;2023-09-08T03:11:10;8.93;;;7.72;;
39442;SDS011;25147;52.142;9.960;2023-09-08T03:13:37;8.80;;;7.50;;
39442;SDS011;25147;52.142;9.960;2023-09-08T03:16:04;8.48;;;7.78;;
39442;SDS011;25147;52.142;9.960;2023-09-08T03:18:31;9.13;;;8.20;;
39442;SDS011;25147;52.142;9.960;2023-09-08T03:20:59;43.22;;;33.55;;
39442;SDS011;25147;52.142;9.960;2023-09-08T03:23:28;11.82;;;8.93;;
39442;SDS011;25147;52.142;9.960;2023-09-08T03:25:57;9.68;;;8.15;;
39442;SDS011;25147;52.142;9.960;2023-09-08T03:28:23;9.10;;;7.85;;
39442;SDS011;25147;52.142;9.960;2023-09-08T03:30:50;8.80;;;8.00;;
39442;SDS011;25147;52.142;9.960;2023-09-08T03:33:17;9.15;;;8.35;;
39442;SDS011;25147;52.142;9.960;2023-09-08T03:35:44;11.98;;;8.43;;
39442;SDS011;25147;52.142;9.960;2023-09-08T03:38:11;11.75;;;8.32;;
39442;SDS011;25147;52.142;9.960;2023-09-08T03:40:38;9.20;;;7.40;;
39442;SDS011;25147;52.142;9.960;2023-09-08T03:43:11;8.90;;;7.80;;
39442;SDS011;25147;52.142;9.960;2023-09-08T03:45:38;11.02;;;8.35;;
39442;SDS011;25147;52.142;9.960;2023-09-08T03:48:06;9.57;;;8.55;;
39442;SDS011;25147;52.142;9.960;2023-09-08T03:50:33;9.32;;;7.68;;
39442;SDS011;25147;52.142;9.960;2023-09-08T03:53:08;8.77;;;7.97;;
39442;SDS011;25147;52.142;9.960;2023-09-08T03:55:36;8.95;;;8.05;;
39442;SDS011;25147;52.142;9.960;2023-09-08T03:58:05;9.00;;;7.90;;
39442;SDS011;25147;52.142;9.960;2023-09-08T04:00:35;9.10;;;8.20;;
39442;SDS011;25147;52.142;9.960;2023-09-08T04:03:08;8.65;;;7.82;;
39442;SDS011;25147;52.142;9.960;2023-09-08T04:05:35;8.63;;;7.80;;
39442;SDS011;25147;52.142;9.960;2023-09-08T04:08:08;8.98;;;8.15;;
39442;SDS011;25147;52.142;9.960;2023-09-08T04:10:35;9.52;;;8.70;;
39442;SDS011;25147;52.142;9.960;2023-09-08T04:13:02;11.18;;;7.97;;
39442;SDS011;25147;52.142;9.960;2023-09-08T04:15:30;10.68;;;8.98;;
39442;SDS011;25147;52.142;9.960;2023-09-08T04:17:59;8.93;;;8.07;;
39442;SDS011;25147;52.142;9.960;2023-09-08T04:20:27;8.82;;;8.02;;
39442;SDS011;25147;52.142;9.960;2023-09-08T04:22:57;9.35;;;8.43;;
39442;SDS011;25147;52.142;9.960;2023-09-08T04:25:27;8.18;;;7.47;;
39442;SDS011;25147;52.142;9.960;2023-09-08T04:27:54;10.25;;;7.88;;
39442;SDS011;25147;52.142;9.960;2023-09-08T04:30:21;8.88;;;8.07;;
39442;SDS011;25147;52.142;9.960;2023-09-08T04:32:56;8.90;;;8.00;;
39442;SDS011;25147;52.142;9.960;2023-09-08T04:35:35;9.80;;;8.90;;
39442;SDS011;25147;52.142;9.960;2023-09-08T04:38:06;10.55;;;8.57;;
39442;SDS011;25147;52.142;9.960;2023-09-08T04:40:44;10.07;;;9.18;;
39442;SDS011;25147;52.142;9.960;2023-09-08T04:43:15;11.32;;;8.82;;
39442;SDS011;25147;52.142;9.960;2023-09-08T04:45:44;9.52;;;8.57;;
39442;SDS011;25147;52.142;9.960;2023-09-08T04:48:14;9.40;;;8.45;;
39442;SDS011;25147;52.142;9.960;2023-09-08T04:50:43;9.32;;;8.52;;
39442;SDS011;25147;52.142;9.960;2023-09-08T04:53:11;11.00;;;9.52;;
39442;SDS011;25147;52.142;9.960;2023-09-08T04:55:38;10.05;;;9.00;;
39442;SDS011;25147;52.142;9.960;2023-09-08T04:58:05;9.88;;;8.32;;
39442;SDS011;25147;52.142;9.960;2023-09-08T05:00:40;9.38;;;8.48;;
39442;SDS011;25147;52.142;9.960;2023-09-08T05:03:07;10.73;;;8.88;;
39442;SDS011;25147;52.142;9.960;2023-09-08T05:05:36;10.15;;;9.30;;
39442;SDS011;25147;52.142;9.960;2023-09-08T05:08:05;10.20;;;9.02;;
39442;SDS011;25147;52.142;9.960;2023-09-08T05:10:32;11.15;;;9.20;;
39442;SDS011;25147;52.142;9.960;2023-09-08T05:12:59;10.00;;;8.98;;
39442;SDS011;25147;52.142;9.960;2023-09-08T05:15:26;10.93;;;9.27;;
39442;SDS011;25147;52.142;9.960;2023-09-08T05:17:53;12.57;;;8.98;;
39442;SDS011;25147;52.142;9.960;2023-09-08T05:20:20;10.20;;;9.20;;
39442;SDS011;25147;52.142;9.960;2023-09-08T05:22:47;9.75;;;8.80;;
39442;SDS011;25147;52.142;9.960;2023-09-08T05:25:15;12.43;;;9.73;;
39442;SDS011;25147;52.142;9.960;2023-09-08T05:27:42;9.82;;;8.82;;
39442;SDS011;25147;52.142;9.960;2023-09-08T05:30:11;10.50;;;8.30;;
39442;SDS011;25147;52.142;9.960;2023-09-08T05:32:39;9.82;;;8.88;;
39442;SDS011;25147;52.142;9.960;2023-09-08T05:35:06;9.63;;;8.75;;
39442;SDS011;25147;52.142;9.960;2023-09-08T05:37:36;9.98;;;9.07;;
39442;SDS011;25147;52.142;9.960;2023-09-08T05:40:04;11.23;;;10.23;;
39442;SDS011;25147;52.142;9.960;2023-09-08T05:42:33;10.80;;;9.90;;
39442;SDS011;25147;52.142;9.960;2023-09-08T05:45:00;12.70;;;9.63;;
39442;SDS011;25147;52.142;9.960;2023-09-08T05:47:27;11.10;;;9.73;;
39442;SDS011;25147;52.142;9.960;2023-09-08T05:49:53;12.45;;;9.18;;
39442;SDS011;25147;52.142;9.960;2023-09-08T05:52:21;11.43;;;8.90;;
39442;SDS011;25147;52.142;9.960;2023-09-08T05:54:48;12.90;;;10.05;;
39442;SDS011;25147;52.142;9.960;2023-09-08T05:57:14;10.35;;;9.27;;
39442;SDS011;25147;52.142;9.960;2023-09-08T05:59:43;10.80;;;9.18;;
39442;SDS011;25147;52.142;9.960;2023-09-08T06:02:12;10.50;;;9.40;;
39442;SDS011;25147;52.142;9.960;2023-09-08T06:04:38;11.23;;;9.60;;
39442;SDS011;25147;52.142;9.960;2023-09-08T06:07:05;12.35;;;9.20;;
39442;SDS011;25147;52.142;9.960;2023-09-08T06:09:41;9.70;;;8.68;;
39442;SDS011;25147;52.142;9.960;2023-09-08T06:12:11;10.25;;;8.88;;
39442;SDS011;25147;52.142;9.960;2023-09-08T06:14:42;10.30;;;8.75;;
39442;SDS011;25147;52.142;9.960;2023-09-08T06:17:10;9.98;;;8.98;;
39442;SDS011;25147;52.142;9.960;2023-09-08T06:19:43;11.30;;;8.70;;
39442;SDS011;25147;52.142;9.960;2023-09-08T06:22:14;10.15;;;8.60;;
39442;SDS011;25147;52.142;9.960;2023-09-08T06:24:54;10.00;;;9.10;;
39442;SDS011;25147;52.142;9.960;2023-09-08T06:28:11;10.93;;;9.75;;
39442;SDS011;25147;52.142;9.960;2023-09-08T06:30:39;11.63;;;9.55;;
39442;SDS011;25147;52.142;9.960;2023-09-08T06:33:19;9.65;;;8.73;;
39442;SDS011;25147;52.142;9.960;2023-09-08T06:35:56;10.02;;;8.95;;
39442;SDS011;25147;52.142;9.960;2023-09-08T06:38:35;10.75;;;8.93;;
39442;SDS011;25147;52.142;9.960;2023-09-08T06:41:09;11.98;;;9.02;;
39442;SDS011;25147;52.142;9.960;2023-09-08T06:44:14;9.40;;;8.50;;
39442;SDS011;25147;52.142;9.960;2023-09-08T06:46:58;9.52;;;8.73;;
39442;SDS011;25147;52.142;9.960;2023-09-08T06:49:26;10.52;;;9.15;;
39442;SDS011;25147;52.142;9.960;2023-09-08T06:51:55;10.73;;;9.15;;
39442;SDS011;25147;52.142;9.960;2023-09-08T06:54:25;9.00;;;8.13;;
39442;SDS011;25147;52.142;9.960;2023-09-08T06:57:30;10.25;;;9.13;;
39442;SDS011;25147;52.142;9.960;2023-09-08T07:00:20;9.02;;;8.23;;
39442;SDS011;25147;52.142;9.960;2023-09-08T07:03:45;11.50;;;9.10;;
39442;SDS011;25147;52.142;9.960;2023-09-08T07:06:40;9.75;;;8.77;;
39442;SDS011;25147;52.142;9.960;2023-09-08T07:09:30;10.80;;;8.57;;
39442;SDS011;25147;52.142;9.960;2023-09-08T07:12:26;10.80;;;9.43;;
39442;SDS011;25147;52.142;9.960;2023-09-08T07:15:46;9.65;;;8.65;;
39442;SDS011;25147;52.142;9.960;2023-09-08T07:18:36;9.95;;;9.05;;
39442;SDS011;25147;52.142;9.960;2023-09-08T07:31:09;9.65;;;8.75;;
39442;SDS011;25147;52.142;9.960;2023-09-08T07:33:48;8.82;;;8.02;;
39442;SDS011;25147;52.142;9.960;2023-09-08T07:36:23;10.90;;;8.50;;
39442;SDS011;25147;52.142;9.960;2023-09-08T07:42:22;8.68;;;7.68;;
39442;SDS011;25147;52.142;9.960;2023-09-08T07:44:54;11.32;;;7.97;;
39442;SDS011;25147;52.142;9.960;2023-09-08T07:48:06;10.07;;;7.88;;
39442;SDS011;25147;52.142;9.960;2023-09-08T07:50:47;7.75;;;7.07;;
39442;SDS011;25147;52.142;9.960;2023-09-08T07:53:22;8.43;;;7.30;;
39442;SDS011;25147;52.142;9.960;2023-09-08T07:55:56;8.57;;;7.57;;
39442;SDS011;25147;52.142;9.960;2023-09-08T07:58:27;8.25;;;7.07;;
39442;SDS011;25147;52.142;9.960;2023-09-08T08:01:09;7.43;;;6.70;;
39442;SDS011;25147;52.142;9.960;2023-09-08T08:08:22;7.10;;;6.18;;
39442;SDS011;25147;52.142;9.960;2023-09-08T08:10:24;7.72;;;6.40;;
39442;SDS011;25147;52.142;9.960;2023-09-08T08:13:25;9.23;;;5.70;;
39442;SDS011;25147;52.142;9.960;2023-09-08T08:16:03;6.80;;;6.07;;
39442;SDS011;25147;52.142;9.960;2023-09-08T08:18:57;6.03;;;5.50;;
39442;SDS011;25147;52.142;9.960;2023-09-08T08:21:25;6.35;;;5.72;;
39442;SDS011;25147;52.142;9.960;2023-09-08T08:23:55;6.68;;;6.05;;
39442;SDS011;25147;52.142;9.960;2023-09-08T08:26:28;5.88;;;5.38;;
39442;SDS011;25147;52.142;9.960;2023-09-08T08:29:29;6.00;;;5.47;;
39442;SDS011;25147;52.142;9.960;2023-09-08T08:32:14;6.15;;;5.55;;
39442;SDS011;25147;52.142;9.960;2023-09-08T08:34:47;7.95;;;5.75;;
39442;SDS011;25147;52.142;9.960;2023-09-08T08:37:35;9.45;;;5.72;;
39442;SDS011;25147;52.142;9.960;2023-09-08T08:40:02;5.63;;;5.20;;
39442;SDS011;25147;52.142;9.960;2023-09-08T08:42:34;5.47;;;4.97;;
39442;SDS011;25147;52.142;9.960;2023-09-08T08:45:09;5.72;;;5.10;;
39442;SDS011;25147;52.142;9.960;2023-09-08T08:48:14;5.90;;;5.32;;
39442;SDS011;25147;52.142;9.960;2023-09-08T08:51:41;5.93;;;5.43;;
39442;SDS011;25147;52.142;9.960;2023-09-08T08:54:41;6.03;;;5.40;;
39442;SDS011;25147;52.142;9.960;2023-09-08T08:57:38;5.95;;;5.45;;
39442;SDS011;25147;52.142;9.960;2023-09-08T09:15:04;5.90;;;5.22;;
39442;SDS011;25147;52.142;9.960;2023-09-08T09:31:45;5.80;;;5.22;;
39442;SDS011;25147;52.142;9.960;2023-09-08T09:43:30;5.25;;;4.43;;
39442;SDS011;25147;52.142;9.960;2023-09-08T09:53:37;7.13;;;4.55;;
39442;SDS011;25147;52.142;9.960;2023-09-08T09:56:09;5.97;;;4.28;;
39442;SDS011;25147;52.142;9.960;2023-09-08T10:03:24;5.18;;;4.15;;
39442;SDS011;25147;52.142;9.960;2023-09-08T10:18:28;5.25;;;4.70;;
39442;SDS011;25147;52.142;9.960;2023-09-08T10:21:33;9.30;;;4.72;;
39442;SDS011;25147;52.142;9.960;2023-09-08T10:27:35;4.85;;;4.28;;
39442;SDS011;25147;52.142;9.960;2023-09-08T10:34:53;6.65;;;4.47;;
39442;SDS011;25147;52.142;9.960;2023-09-08T10:49:00;4.20;;;3.80;;
39442;SDS011;25147;52.142;9.960;2023-09-08T10:51:57;4.40;;;4.00;;
39442;SDS011;25147;52.142;9.960;2023-09-08T10:58:31;4.45;;;3.75;;
39442;SDS011;25147;52.142;9.960;2023-09-08T11:04:35;5.45;;;4.05;;
39442;SDS011;25147;52.142;9.960;2023-09-08T11:20:13;6.43;;;4.57;;
39442;SDS011;25147;52.142;9.960;2023-09-08T11:23:13;5.60;;;4.32;;
39442;SDS011;25147;52.142;9.960;2023-09-08T11:29:18;4.80;;;3.92;;
39442;SDS011;25147;52.142;9.960;2023-09-08T11:31:51;4.65;;;4.10;;
39442;SDS011;25147;52.142;9.960;2023-09-08T11:34:18;3.85;;;3.55;;
39442;SDS011;25147;52.142;9.960;2023-09-08T11:37:47;7.03;;;4.15;;
39442;SDS011;25147;52.142;9.960;2023-09-08T11:40:24;5.35;;;3.92;;
39442;SDS011;25147;52.142;9.960;2023-09-08T11:43:21;4.60;;;4.20;;
39442;SDS011;25147;52.142;9.960;2023-09-08T11:46:09;3.75;;;3.45;;
39442;SDS011;25147;52.142;9.960;2023-09-08T11:48:47;4.15;;;3.70;;
39442;SDS011;25147;52.142;9.960;2023-09-08T11:51:22;4.32;;;3.60;;
39442;SDS011;25147;52.142;9.960;2023-09-08T11:57:51;4.30;;;3.90;;
39442;SDS011;25147;52.142;9.960;2023-09-08T12:08:28;3.53;;;3.22;;
39442;SDS011;25147;52.142;9.960;2023-09-08T12:10:56;3.83;;;3.53;;
39442;SDS011;25147;52.142;9.960;2023-09-08T12:13:23;4.10;;;3.70;;
39442;SDS011;25147;52.142;9.960;2023-09-08T12:15:50;3.65;;;3.35;;
39442;SDS011;25147;52.142;9.960;2023-09-08T12:18:17;5.03;;;3.33;;
39442;SDS011;25147;52.142;9.960;2023-09-08T12:20:44;4.20;;;3.80;;
39442;SDS011;25147;52.142;9.960;2023-09-08T12:23:18;4.70;;;3.88;;
39442;SDS011;25147;52.142;9.960;2023-09-08T12:25:46;3.97;;;3.45;;
39442;SDS011;25147;52.142;9.960;2023-09-08T12:28:16;5.70;;;4.25;;
39442;SDS011;25147;52.142;9.960;2023-09-08T12:30:45;4.80;;;3.42;;
39442;SDS011;25147;52.142;9.960;2023-09-08T12:33:12;4.72;;;3.72;;
39442;SDS011;25147;52.142;9.960;2023-09-08T12:35:42;2.95;;;2.75;;
39442;SDS011;25147;52.142;9.960;2023-09-08T12:38:10;4.22;;;3.08;;
39442;SDS011;25147;52.142;9.960;2023-09-08T12:40:37;3.75;;;3.10;;
39442;SDS011;25147;52.142;9.960;2023-09-08T12:43:05;3.20;;;3.00;;
39442;SDS011;25147;52.142;9.960;2023-09-08T12:45:33;3.58;;;2.75;;
39442;SDS011;25147;52.142;9.960;2023-09-08T12:48:01;2.95;;;2.60;;
39442;SDS011;25147;52.142;9.960;2023-09-08T12:50:32;3.50;;;3.20;;
39442;SDS011;25147;52.142;9.960;2023-09-08T12:52:59;3.30;;;3.00;;
39442;SDS011;25147;52.142;9.960;2023-09-08T12:55:25;3.40;;;3.00;;
39442;SDS011;25147;52.142;9.960;2023-09-08T12:57:53;3.95;;;3.10;;
39442;SDS011;25147;52.142;9.960;2023-09-08T13:00:21;3.47;;;3.10;;
39442;SDS011;25147;52.142;9.960;2023-09-08T13:02:50;3.97;;;3.35;;
39442;SDS011;25147;52.142;9.960;2023-09-08T13:05:17;5.28;;;3.35;;
39442;SDS011;25147;52.142;9.960;2023-09-08T13:07:44;6.45;;;3.33;;
39442;SDS011;25147;52.142;9.960;2023-09-08T13:10:11;3.80;;;3.42;;
39442;SDS011;25147;52.142;9.960;2023-09-08T13:12:37;4.97;;;3.30;;
39442;SDS011;25147;52.142;9.960;2023-09-08T13:15:05;3.88;;;3.58;;
39442;SDS011;25147;52.142;9.960;2023-09-08T13:17:32;3.47;;;3.17;;
39442;SDS011;25147;52.142;9.960;2023-09-08T13:20:01;4.30;;;3.58;;
39442;SDS011;25147;52.142;9.960;2023-09-08T13:22:28;5.22;;;3.20;;
39442;SDS011;25147;52.142;9.960;2023-09-08T13:24:55;4.20;;;3.47;;
39442;SDS011;25147;52.142;9.960;2023-09-08T13:27:21;4.13;;;3.28;;
39442;SDS011;25147;52.142;9.960;2023-09-08T13:29:48;3.35;;;3.05;;
39442;SDS011;25147;52.142;9.960;2023-09-08T13:32:15;5.85;;;3.55;;
39442;SDS011;25147;52.142;9.960;2023-09-08T13:34:42;3.40;;;3.10;;
39442;SDS011;25147;52.142;9.960;2023-09-08T13:37:13;4.93;;;3.40;;
39442;SDS011;25147;52.142;9.960;2023-09-08T13:39:40;4.53;;;3.50;;
39442;SDS011;25147;52.142;9.960;2023-09-08T13:42:07;3.22;;;3.03;;
39442;SDS011;25147;52.142;9.960;2023-09-08T13:44:34;5.38;;;3.90;;
39442;SDS011;25147;52.142;9.960;2023-09-08T13:47:01;4.63;;;3.50;;
39442;SDS011;25147;52.142;9.960;2023-09-08T13:49:29;4.05;;;3.65;;
39442;SDS011;25147;52.142;9.960;2023-09-08T13:51:56;4.03;;;2.97;;
39442;SDS011;25147;52.142;9.960;2023-09-08T13:54:24;4.03;;;3.20;;
39442;SDS011;25147;52.142;9.960;2023-09-08T13:56:57;3.80;;;3.03;;
39442;SDS011;25147;52.142;9.960;2023-09-08T13:59:26;3.83;;;3.08;;
39442;SDS011;25147;52.142;9.960;2023-09-08T14:01:53;3.38;;;3.13;;
39442;SDS011;25147;52.142;9.960;2023-09-08T14:04:21;3.83;;;3.10;;
39442;SDS011;25147;52.142;9.960;2023-09-08T14:06:48;3.50;;;3.20;;
39442;SDS011;25147;52.142;9.960;2023-09-08T14:09:14;4.45;;;3.33;;
39442;SDS011;25147;52.142;9.960;2023-09-08T14:11:43;3.95;;;3.38;;
39442;SDS011;25147;52.142;9.960;2023-09-08T14:14:10;3.90;;;3.33;;
39442;SDS011;25147;52.142;9.960;2023-09-08T14:16:37;5.00;;;3.42;;
39442;SDS011;25147;52.142;9.960;2023-09-08T14:19:04;3.90;;;2.90;;
39442;SDS011;25147;52.142;9.960;2023-09-08T14:21:30;3.47;;;3.17;;
39442;SDS011;25147;52.142;9.960;2023-09-08T14:23:57;3.70;;;2.92;;
39442;SDS011;25147;52.142;9.960;2023-09-08T14:26:24;3.38;;;2.88;;
39442;SDS011;25147;52.142;9.960;2023-09-08T14:28:52;4.05;;;3.30;;
39442;SDS011;25147;52.142;9.960;2023-09-08T14:31:19;3.28;;;3.08;;
39442;SDS011;25147;52.142;9.960;2023-09-08T14:33:46;3.50;;;3.00;;
39442;SDS011;25147;52.142;9.960;2023-09-08T14:36:16;3.60;;;3.28;;
39442;SDS011;25147;52.142;9.960;2023-09-08T14:38:43;4.22;;;3.13;;
39442;SDS011;25147;52.142;9.960;2023-09-08T14:41:10;2.92;;;2.70;;
39442;SDS011;25147;52.142;9.960;2023-09-08T14:43:37;5.05;;;3.10;;
39442;SDS011;25147;52.142;9.960;2023-09-08T14:46:05;4.30;;;3.17;;
39442;SDS011;25147;52.142;9.960;2023-09-08T14:48:31;3.10;;;2.90;;
39442;SDS011;25147;52.142;9.960;2023-09-08T14:50:59;6.93;;;2.92;;
39442;SDS011;25147;52.142;9.960;2023-09-08T14:53:27;3.10;;;2.90;;
39442;SDS011;25147;52.142;9.960;2023-09-08T14:55:55;3.75;;;2.80;;
39442;SDS011;25147;52.142;9.960;2023-09-08T14:58:23;3.55;;;3.30;;
39442;SDS011;25147;52.142;9.960;2023-09-08T15:00:50;5.32;;;3.15;;
39442;SDS011;25147;52.142;9.960;2023-09-08T15:03:18;3.67;;;3.00;;
39442;SDS011;25147;52.142;9.960;2023-09-08T15:05:45;10.13;;;3.15;;
39442;SDS011;25147;52.142;9.960;2023-09-08T15:08:12;6.03;;;3.38;;
39442;SDS011;25147;52.142;9.960;2023-09-08T15:10:38;3.85;;;3.40;;
39442;SDS011;25147;52.142;9.960;2023-09-08T15:13:05;3.58;;;2.90;;
39442;SDS011;25147;52.142;9.960;2023-09-08T15:15:32;4.53;;;3.38;;
39442;SDS011;25147;52.142;9.960;2023-09-08T15:17:58;3.00;;;2.80;;
39442;SDS011;25147;52.142;9.960;2023-09-08T15:20:27;4.18;;;3.55;;
39442;SDS011;25147;52.142;9.960;2023-09-08T15:22:53;4.70;;;3.17;;
39442;SDS011;25147;52.142;9.960;2023-09-08T15:25:21;4.00;;;3.08;;
39442;SDS011;25147;52.142;9.960;2023-09-08T15:27:48;4.25;;;2.80;;
39442;SDS011;25147;52.142;9.960;2023-09-08T15:30:18;3.70;;;3.10;;
39442;SDS011;25147;52.142;9.960;2023-09-08T15:32:45;2.90;;;2.70;;
39442;SDS011;25147;52.142;9.960;2023-09-08T15:35:12;5.97;;;3.15;;
39442;SDS011;25147;52.142;9.960;2023-09-08T15:37:40;4.90;;;3.28;;
39442;SDS011;25147;52.142;9.960;2023-09-08T15:40:07;3.72;;;3.42;;
39442;SDS011;25147;52.142;9.960;2023-09-08T15:42:39;3.75;;;3.45;;
39442;SDS011;25147;52.142;9.960;2023-09-08T15:45:06;3.50;;;3.17;;
39442;SDS011;25147;52.142;9.960;2023-09-08T15:47:33;6.47;;;3.38;;
39442;SDS011;25147;52.142;9.960;2023-09-08T15:50:00;4.95;;;3.20;;
39442;SDS011;25147;52.142;9.960;2023-09-08T15:52:28;3.78;;;3.20;;
39442;SDS011;25147;52.142;9.960;2023-09-08T15:54:56;4.88;;;3.10;;
39442;SDS011;25147;52.142;9.960;2023-09-08T15:57:23;3.58;;;3.13;;
39442;SDS011;25147;52.142;9.960;2023-09-08T15:59:50;6.88;;;3.50;;
39442;SDS011;25147;52.142;9.960;2023-09-08T16:02:17;3.97;;;3.38;;
39442;SDS011;25147;52.142;9.960;2023-09-08T16:04:43;8.77;;;3.17;;
39442;SDS011;25147;52.142;9.960;2023-09-08T16:07:10;4.30;;;3.80;;
39442;SDS011;25147;52.142;9.960;2023-09-08T16:09:37;3.67;;;3.38;;
39442;SDS011;25147;52.142;9.960;2023-09-08T16:12:06;5.22;;;3.22;;
39442;SDS011;25147;52.142;9.960;2023-09-08T16:14:33;5.93;;;3.35;;
39442;SDS011;25147;52.142;9.960;2023-09-08T16:17:00;5.30;;;3.08;;
39442;SDS011;25147;52.142;9.960;2023-09-08T16:19:28;3.42;;;3.05;;
39442;SDS011;25147;52.142;9.960;2023-09-08T16:21:55;5.18;;;3.15;;
39442;SDS011;25147;52.142;9.960;2023-09-08T16:24:21;3.50;;;3.22;;
39442;SDS011;25147;52.142;9.960;2023-09-08T16:26:48;4.53;;;3.15;;
39442;SDS011;25147;52.142;9.960;2023-09-08T16:29:16;3.47;;;3.17;;
39442;SDS011;25147;52.142;9.960;2023-09-08T16:31:43;6.20;;;3.17;;
39442;SDS011;25147;52.142;9.960;2023-09-08T16:34:10;4.10;;;3.70;;
39442;SDS011;25147;52.142;9.960;2023-09-08T16:36:36;5.00;;;3.50;;
39442;SDS011;25147;52.142;9.960;2023-09-08T16:39:04;4.50;;;3.40;;
39442;SDS011;25147;52.142;9.960;2023-09-08T16:41:31;3.97;;;3.10;;
39442;SDS011;25147;52.142;9.960;2023-09-08T16:43:58;4.57;;;3.67;;
39442;SDS011;25147;52.142;9.960;2023-09-08T16:46:26;4.40;;;3.05;;
39442;SDS011;25147;52.142;9.960;2023-09-08T16:48:52;3.78;;;3.40;;
39442;SDS011;25147;52.142;9.960;2023-09-08T16:51:19;3.42;;;3.13;;
39442;SDS011;25147;52.142;9.960;2023-09-08T16:53:46;3.45;;;3.10;;
39442;SDS011;25147;52.142;9.960;2023-09-08T16:56:13;4.13;;;3.13;;
39442;SDS011;25147;52.142;9.960;2023-09-08T16:58:39;3.38;;;3.13;;
39442;SDS011;25147;52.142;9.960;2023-09-08T17:01:06;4.18;;;3.10;;
39442;SDS011;25147;52.142;9.960;2023-09-08T17:03:34;3.55;;;3.17;;
39442;SDS011;25147;52.142;9.960;2023-09-08T17:06:01;5.82;;;3.22;;
39442;SDS011;25147;52.142;9.960;2023-09-08T17:08:28;3.47;;;3.25;;
39442;SDS011;25147;52.142;9.960;2023-09-08T17:10:55;3.88;;;3.50;;
39442;SDS011;25147;52.142;9.960;2023-09-08T17:13:21;4.47;;;3.33;;
39442;SDS011;25147;52.142;9.960;2023-09-08T17:15:49;3.35;;;2.95;;
39442;SDS011;25147;52.142;9.960;2023-09-08T17:18:15;3.65;;;3.30;;
39442;SDS011;25147;52.142;9.960;2023-09-08T17:20:44;4.90;;;3.70;;
39442;SDS011;25147;52.142;9.960;2023-09-08T17:23:11;6.75;;;3.50;;
39442;SDS011;25147;52.142;9.960;2023-09-08T17:25:38;3.90;;;3.60;;